sensor_id;sensor_type;location;lat;lon;timestamp;pressure;altitude;pressure_sealevel;temperature;humidity
43621;BME280;29213;50.770;7.298;2023-11-19T00:01:00;100369.31;;;7.84;71.70
43621;BME280;29213;50.770;7.298;2023-11-19T00:03:26;100412.56;;;8.13;71.80
43621;BME280;29213;50.770;7.298;2023-11-19T00:05:51;100367.66;;;7.83;72.01
43621;BME280;29213;50.770;7.298;2023-11-19T00:08:17;100369.72;;;7.89;71.92
43621;BME280;29213;50.770;7.298;2023-11-19T00:10:42;100375.91;;;7.98;71.99
43621;BME280;29213;50.770;7.298;2023-11-19T00:13:07;100405.94;;;8.17;71.91
43621;BME280;29213;50.770;7.298;2023-11-19T00:15:33;100410.50;;;8.25;71.94
43621;BME280;29213;50.770;7.298;2023-11-19T00:17:58;100420.88;;;8.36;72.03
43621;BME280;29213;50.770;7.298;2023-11-19T00:20:24;100307.91;;;7.71;72.37
43621;BME280;29213;50.770;7.298;2023-11-19T00:22:49;100385.63;;;8.26;72.33
43621;BME280;29213;50.770;7.298;2023-11-19T00:25:18;100384.28;;;8.22;72.75
43621;BME280;29213;50.770;7.298;2023-11-19T00:27:44;100360.13;;;8.07;72.76
43621;BME280;29213;50.770;7.298;2023-11-19T00:30:12;100390.16;;;8.34;72.59
43621;BME280;29213;50.770;7.298;2023-11-19T00:32:39;100357.75;;;8.22;72.74
43621;BME280;29213;50.770;7.298;2023-11-19T00:35:05;100330.53;;;8.20;72.74
43621;BME280;29213;50.770;7.298;2023-11-19T00:37:31;100374.16;;;8.43;72.94
43621;BME280;29213;50.770;7.298;2023-11-19T00:39:57;100328.50;;;8.13;72.97
43621;BME280;29213;50.770;7.298;2023-11-19T00:42:23;100316.38;;;7.93;73.66
43621;BME280;29213;50.770;7.298;2023-11-19T00:44:52;100312.00;;;7.83;74.22
43621;BME280;29213;50.770;7.298;2023-11-19T00:47:18;100311.84;;;7.85;74.20
43621;BME280;29213;50.770;7.298;2023-11-19T00:49:46;100334.09;;;7.92;74.22
43621;BME280;29213;50.770;7.298;2023-11-19T00:52:14;100354.59;;;8.18;74.22
43621;BME280;29213;50.770;7.298;2023-11-19T00:54:39;100261.78;;;7.63;74.07
43621;BME280;29213;50.770;7.298;2023-11-19T00:57:05;100342.50;;;8.24;73.87
43621;BME280;29213;50.770;7.298;2023-11-19T00:59:31;100377.19;;;8.49;73.86
43621;BME280;29213;50.770;7.298;2023-11-19T01:01:56;100369.00;;;8.42;73.37
43621;BME280;29213;50.770;7.298;2023-11-19T01:04:22;100335.75;;;8.29;73.37
43621;BME280;29213;50.770;7.298;2023-11-19T01:06:49;100381.25;;;8.61;73.46
43621;BME280;29213;50.770;7.298;2023-11-19T01:09:15;100242.00;;;7.76;73.70
43621;BME280;29213;50.770;7.298;2023-11-19T01:11:40;100320.81;;;8.28;74.51
43621;BME280;29213;50.770;7.298;2023-11-19T01:14:06;100330.97;;;8.33;75.01
43621;BME280;29213;50.770;7.298;2023-11-19T01:16:31;100328.75;;;8.28;76.06
43621;BME280;29213;50.770;7.298;2023-11-19T01:18:56;100292.41;;;8.02;76.53
43621;BME280;29213;50.770;7.298;2023-11-19T01:21:22;100317.97;;;8.22;77.24
43621;BME280;29213;50.770;7.298;2023-11-19T01:23:47;100317.13;;;8.21;77.60
43621;BME280;29213;50.770;7.298;2023-11-19T01:26:13;100333.31;;;8.36;77.46
43621;BME280;29213;50.770;7.298;2023-11-19T01:28:39;100351.97;;;8.53;77.12
43621;BME280;29213;50.770;7.298;2023-11-19T01:31:05;100295.41;;;8.26;77.36
43621;BME280;29213;50.770;7.298;2023-11-19T01:33:31;100243.72;;;7.85;77.81
43621;BME280;29213;50.770;7.298;2023-11-19T01:35:57;100302.19;;;8.20;77.98
43621;BME280;29213;50.770;7.298;2023-11-19T01:38:24;100326.41;;;8.43;78.78
43621;BME280;29213;50.770;7.298;2023-11-19T01:40:50;100344.25;;;8.60;78.53
43621;BME280;29213;50.770;7.298;2023-11-19T01:43:37;100303.47;;;8.42;78.16
43621;BME280;29213;50.770;7.298;2023-11-19T01:46:05;100308.53;;;8.54;77.88
43621;BME280;29213;50.770;7.298;2023-11-19T01:48:32;100296.75;;;8.56;77.15
43621;BME280;29213;50.770;7.298;2023-11-19T01:50:59;100303.22;;;8.54;77.52
43621;BME280;29213;50.770;7.298;2023-11-19T01:53:25;100343.03;;;8.80;77.62
43621;BME280;29213;50.770;7.298;2023-11-19T01:55:51;100264.50;;;8.35;77.53
43621;BME280;29213;50.770;7.298;2023-11-19T01:58:18;100293.75;;;8.51;77.68
43621;BME280;29213;50.770;7.298;2023-11-19T02:00:44;100347.88;;;8.85;77.49
43621;BME280;29213;50.770;7.298;2023-11-19T02:03:11;100334.28;;;8.88;77.44
43621;BME280;29213;50.770;7.298;2023-11-19T02:05:37;100308.47;;;8.72;77.27
43621;BME280;29213;50.770;7.298;2023-11-19T02:08:03;100337.28;;;8.93;77.09
43621;BME280;29213;50.770;7.298;2023-11-19T02:10:29;100285.34;;;8.64;77.12
43621;BME280;29213;50.770;7.298;2023-11-19T02:12:54;100270.56;;;8.62;77.15
43621;BME280;29213;50.770;7.298;2023-11-19T02:15:20;100288.22;;;8.71;77.13
43621;BME280;29213;50.770;7.298;2023-11-19T02:17:47;100343.47;;;9.02;76.89
43621;BME280;29213;50.770;7.298;2023-11-19T02:20:12;100324.66;;;8.95;77.00
43621;BME280;29213;50.770;7.298;2023-11-19T02:22:40;100307.19;;;8.85;76.82
43621;BME280;29213;50.770;7.298;2023-11-19T02:25:22;100324.34;;;8.99;76.80
43621;BME280;29213;50.770;7.298;2023-11-19T02:27:56;100305.06;;;8.88;76.85
43621;BME280;29213;50.770;7.298;2023-11-19T02:30:22;100320.72;;;9.08;77.06
43621;BME280;29213;50.770;7.298;2023-11-19T02:33:00;100316.72;;;9.04;76.87
43621;BME280;29213;50.770;7.298;2023-11-19T02:35:31;100310.97;;;9.17;76.80
43621;BME280;29213;50.770;7.298;2023-11-19T02:37:57;100293.00;;;9.10;76.65
43621;BME280;29213;50.770;7.298;2023-11-19T02:40:23;100297.88;;;9.23;76.34
43621;BME280;29213;50.770;7.298;2023-11-19T02:42:52;100250.31;;;8.95;76.05
43621;BME280;29213;50.770;7.298;2023-11-19T02:45:19;100307.50;;;9.25;76.21
43621;BME280;29213;50.770;7.298;2023-11-19T02:47:44;100271.75;;;9.10;76.08
43621;BME280;29213;50.770;7.298;2023-11-19T02:50:11;100267.44;;;9.09;76.01
43621;BME280;29213;50.770;7.298;2023-11-19T02:52:43;100304.84;;;9.25;76.21
43621;BME280;29213;50.770;7.298;2023-11-19T02:55:10;100296.56;;;9.28;76.08
43621;BME280;29213;50.770;7.298;2023-11-19T02:57:41;100197.09;;;8.62;76.08
43621;BME280;29213;50.770;7.298;2023-11-19T03:00:18;100314.16;;;9.37;75.94
43621;BME280;29213;50.770;7.298;2023-11-19T03:02:44;100263.94;;;9.09;75.91
43621;BME280;29213;50.770;7.298;2023-11-19T03:05:19;100235.38;;;8.94;75.71
43621;BME280;29213;50.770;7.298;2023-11-19T03:07:45;100296.75;;;9.43;75.76
43621;BME280;29213;50.770;7.298;2023-11-19T03:10:10;100282.63;;;9.42;75.77
43621;BME280;29213;50.770;7.298;2023-11-19T03:12:43;100278.47;;;9.40;76.07
43621;BME280;29213;50.770;7.298;2023-11-19T03:15:09;100287.94;;;9.42;76.09
43621;BME280;29213;50.770;7.298;2023-11-19T03:17:36;100261.16;;;9.27;75.59
43621;BME280;29213;50.770;7.298;2023-11-19T03:20:04;100257.34;;;9.21;75.46
43621;BME280;29213;50.770;7.298;2023-11-19T03:22:32;100242.56;;;9.27;75.35
43621;BME280;29213;50.770;7.298;2023-11-19T03:24:59;100222.13;;;9.19;75.17
43621;BME280;29213;50.770;7.298;2023-11-19T03:27:24;100267.34;;;9.44;74.87
43621;BME280;29213;50.770;7.298;2023-11-19T03:29:50;100263.56;;;9.47;74.74
43621;BME280;29213;50.770;7.298;2023-11-19T03:32:15;100289.66;;;9.68;74.55
43621;BME280;29213;50.770;7.298;2023-11-19T03:34:41;100263.06;;;9.60;74.14
43621;BME280;29213;50.770;7.298;2023-11-19T03:37:06;100240.31;;;9.49;73.96
43621;BME280;29213;50.770;7.298;2023-11-19T03:39:31;100198.88;;;9.30;74.05
43621;BME280;29213;50.770;7.298;2023-11-19T03:41:58;100251.44;;;9.69;73.55
43621;BME280;29213;50.770;7.298;2023-11-19T03:44:23;100207.38;;;9.42;73.51
43621;BME280;29213;50.770;7.298;2023-11-19T03:46:51;100274.38;;;9.79;73.40
43621;BME280;29213;50.770;7.298;2023-11-19T03:49:17;100239.66;;;9.47;73.07
43621;BME280;29213;50.770;7.298;2023-11-19T03:51:42;100275.88;;;9.73;73.21
43621;BME280;29213;50.770;7.298;2023-11-19T03:54:07;100231.66;;;9.47;73.13
43621;BME280;29213;50.770;7.298;2023-11-19T03:56:33;100182.97;;;9.21;73.03
43621;BME280;29213;50.770;7.298;2023-11-19T03:58:58;100266.53;;;9.69;72.93
43621;BME280;29213;50.770;7.298;2023-11-19T04:01:24;100217.84;;;9.35;73.04
43621;BME280;29213;50.770;7.298;2023-11-19T04:03:49;100243.44;;;9.53;73.13
43621;BME280;29213;50.770;7.298;2023-11-19T04:06:14;100232.59;;;9.29;73.64
43621;BME280;29213;50.770;7.298;2023-11-19T04:08:40;100275.19;;;9.54;74.06
43621;BME280;29213;50.770;7.298;2023-11-19T04:11:06;100276.19;;;9.53;73.99
43621;BME280;29213;50.770;7.298;2023-11-19T04:13:32;100263.88;;;9.52;73.98
43621;BME280;29213;50.770;7.298;2023-11-19T04:15:57;100255.88;;;9.44;73.77
43621;BME280;29213;50.770;7.298;2023-11-19T04:18:23;100278.34;;;9.66;73.74
43621;BME280;29213;50.770;7.298;2023-11-19T04:20:48;100290.16;;;9.72;73.41
43621;BME280;29213;50.770;7.298;2023-11-19T04:23:14;100256.72;;;9.44;73.80
43621;BME280;29213;50.770;7.298;2023-11-19T04:25:40;100297.16;;;9.65;73.94
43621;BME280;29213;50.770;7.298;2023-11-19T04:28:05;100283.50;;;9.68;74.00
43621;BME280;29213;50.770;7.298;2023-11-19T04:30:30;100268.56;;;9.58;73.62
43621;BME280;29213;50.770;7.298;2023-11-19T04:32:57;100260.75;;;9.57;73.57
43621;BME280;29213;50.770;7.298;2023-11-19T04:35:23;100265.25;;;9.65;73.50
43621;BME280;29213;50.770;7.298;2023-11-19T04:37:48;100284.69;;;9.73;73.30
43621;BME280;29213;50.770;7.298;2023-11-19T04:40:14;100217.34;;;9.31;73.26
43621;BME280;29213;50.770;7.298;2023-11-19T04:42:39;100284.53;;;9.75;73.11
43621;BME280;29213;50.770;7.298;2023-11-19T04:45:08;100245.63;;;9.49;73.16
43621;BME280;29213;50.770;7.298;2023-11-19T04:47:36;100302.63;;;9.80;73.22
43621;BME280;29213;50.770;7.298;2023-11-19T04:50:02;100285.03;;;9.79;73.39
43621;BME280;29213;50.770;7.298;2023-11-19T04:52:28;100267.91;;;9.65;73.52
43621;BME280;29213;50.770;7.298;2023-11-19T04:54:53;100246.09;;;9.44;73.52
43621;BME280;29213;50.770;7.298;2023-11-19T04:57:19;100284.34;;;9.68;73.28
43621;BME280;29213;50.770;7.298;2023-11-19T04:59:44;100280.50;;;9.62;73.43
43621;BME280;29213;50.770;7.298;2023-11-19T05:02:10;100279.34;;;9.65;73.18
43621;BME280;29213;50.770;7.298;2023-11-19T05:04:36;100265.06;;;9.58;73.10
43621;BME280;29213;50.770;7.298;2023-11-19T05:07:03;100276.34;;;9.60;73.17
43621;BME280;29213;50.770;7.298;2023-11-19T05:09:28;100290.00;;;9.73;73.31
43621;BME280;29213;50.770;7.298;2023-11-19T05:11:53;100295.16;;;9.58;73.13
43621;BME280;29213;50.770;7.298;2023-11-19T05:14:19;100291.09;;;9.46;73.68
43621;BME280;29213;50.770;7.298;2023-11-19T05:16:45;100288.28;;;9.39;73.67
43621;BME280;29213;50.770;7.298;2023-11-19T05:19:11;100304.09;;;9.49;73.80
43621;BME280;29213;50.770;7.298;2023-11-19T05:21:37;100325.41;;;9.66;73.72
43621;BME280;29213;50.770;7.298;2023-11-19T05:24:02;100315.75;;;9.65;73.25
43621;BME280;29213;50.770;7.298;2023-11-19T05:26:30;100306.59;;;9.59;73.20
43621;BME280;29213;50.770;7.298;2023-11-19T05:28:55;100316.41;;;9.58;72.90
43621;BME280;29213;50.770;7.298;2023-11-19T05:31:21;100286.13;;;9.43;73.00
43621;BME280;29213;50.770;7.298;2023-11-19T05:33:46;100313.25;;;9.63;73.16
43621;BME280;29213;50.770;7.298;2023-11-19T05:36:12;100327.22;;;9.73;72.61
43621;BME280;29213;50.770;7.298;2023-11-19T05:38:38;100321.56;;;9.76;72.24
43621;BME280;29213;50.770;7.298;2023-11-19T05:41:04;100255.53;;;9.30;71.54
43621;BME280;29213;50.770;7.298;2023-11-19T05:43:33;100236.75;;;9.23;72.11
43621;BME280;29213;50.770;7.298;2023-11-19T05:45:58;100314.94;;;9.72;72.19
43621;BME280;29213;50.770;7.298;2023-11-19T05:48:26;100305.78;;;9.67;71.87
43621;BME280;29213;50.770;7.298;2023-11-19T05:50:51;100299.97;;;9.63;71.51
43621;BME280;29213;50.770;7.298;2023-11-19T05:53:17;100328.22;;;9.72;71.11
43621;BME280;29213;50.770;7.298;2023-11-19T05:55:43;100311.91;;;9.51;71.36
43621;BME280;29213;50.770;7.298;2023-11-19T05:58:25;100332.88;;;9.62;70.72
43621;BME280;29213;50.770;7.298;2023-11-19T06:00:52;100296.56;;;9.36;71.42
43621;BME280;29213;50.770;7.298;2023-11-19T06:03:17;100310.56;;;9.46;71.15
43621;BME280;29213;50.770;7.298;2023-11-19T06:05:46;100246.69;;;9.13;71.30
43621;BME280;29213;50.770;7.298;2023-11-19T06:08:12;100328.56;;;9.61;71.08
43621;BME280;29213;50.770;7.298;2023-11-19T06:10:42;100306.91;;;9.47;70.68
43621;BME280;29213;50.770;7.298;2023-11-19T06:13:08;100313.72;;;9.50;71.00
43621;BME280;29213;50.770;7.298;2023-11-19T06:15:35;100348.97;;;9.69;70.87
43621;BME280;29213;50.770;7.298;2023-11-19T06:18:01;100328.56;;;9.61;71.19
43621;BME280;29213;50.770;7.298;2023-11-19T06:20:32;100307.25;;;9.53;70.69
43621;BME280;29213;50.770;7.298;2023-11-19T06:22:57;100301.44;;;9.57;70.75
43621;BME280;29213;50.770;7.298;2023-11-19T06:25:23;100331.88;;;9.71;70.69
43621;BME280;29213;50.770;7.298;2023-11-19T06:27:52;100307.09;;;9.54;69.35
43621;BME280;29213;50.770;7.298;2023-11-19T06:30:18;100342.84;;;9.76;70.17
43621;BME280;29213;50.770;7.298;2023-11-19T06:32:43;100335.53;;;9.70;69.03
43621;BME280;29213;50.770;7.298;2023-11-19T06:35:09;100343.69;;;9.77;69.58
43621;BME280;29213;50.770;7.298;2023-11-19T06:37:35;100342.69;;;9.78;69.44
43621;BME280;29213;50.770;7.298;2023-11-19T06:40:01;100332.38;;;9.67;69.63
43621;BME280;29213;50.770;7.298;2023-11-19T06:42:26;100312.25;;;9.56;69.98
43621;BME280;29213;50.770;7.298;2023-11-19T06:44:52;100345.50;;;9.68;69.30
43621;BME280;29213;50.770;7.298;2023-11-19T06:47:18;100317.56;;;9.56;69.65
43621;BME280;29213;50.770;7.298;2023-11-19T06:49:44;100332.53;;;9.65;69.32
43621;BME280;29213;50.770;7.298;2023-11-19T06:52:09;100345.34;;;9.70;69.68
43621;BME280;29213;50.770;7.298;2023-11-19T06:54:35;100357.81;;;9.86;69.43
43621;BME280;29213;50.770;7.298;2023-11-19T06:57:00;100320.88;;;9.66;69.60
43621;BME280;29213;50.770;7.298;2023-11-19T06:59:26;100361.34;;;9.86;69.50
43621;BME280;29213;50.770;7.298;2023-11-19T07:01:51;100365.63;;;9.96;69.42
43621;BME280;29213;50.770;7.298;2023-11-19T07:04:16;100360.81;;;9.91;69.67
43621;BME280;29213;50.770;7.298;2023-11-19T07:06:42;100351.00;;;9.83;69.61
43621;BME280;29213;50.770;7.298;2023-11-19T07:09:08;100325.91;;;9.69;69.24
43621;BME280;29213;50.770;7.298;2023-11-19T07:11:40;100365.16;;;9.92;69.53
43621;BME280;29213;50.770;7.298;2023-11-19T07:14:09;100340.53;;;9.73;69.25
43621;BME280;29213;50.770;7.298;2023-11-19T07:16:35;100329.06;;;9.65;69.18
43621;BME280;29213;50.770;7.298;2023-11-19T07:19:03;100346.81;;;9.64;67.81
43621;BME280;29213;50.770;7.298;2023-11-19T07:21:28;100356.81;;;9.70;68.17
43621;BME280;29213;50.770;7.298;2023-11-19T07:23:57;100382.25;;;9.89;68.68
43621;BME280;29213;50.770;7.298;2023-11-19T07:26:22;100392.09;;;9.97;68.93
43621;BME280;29213;50.770;7.298;2023-11-19T07:28:49;100366.47;;;9.80;68.28
43621;BME280;29213;50.770;7.298;2023-11-19T07:31:14;100355.31;;;9.76;67.84
43621;BME280;29213;50.770;7.298;2023-11-19T07:33:40;100395.91;;;9.95;68.41
43621;BME280;29213;50.770;7.298;2023-11-19T07:36:08;100398.41;;;9.96;67.82
43621;BME280;29213;50.770;7.298;2023-11-19T07:38:34;100348.81;;;9.70;67.71
43621;BME280;29213;50.770;7.298;2023-11-19T07:41:00;100360.97;;;9.73;68.71
43621;BME280;29213;50.770;7.298;2023-11-19T07:43:26;100383.09;;;9.90;68.52
43621;BME280;29213;50.770;7.298;2023-11-19T07:45:51;100396.56;;;9.97;68.32
43621;BME280;29213;50.770;7.298;2023-11-19T07:48:16;100376.59;;;9.84;68.31
43621;BME280;29213;50.770;7.298;2023-11-19T07:50:48;100369.63;;;9.83;68.06
43621;BME280;29213;50.770;7.298;2023-11-19T07:53:16;100398.41;;;9.96;67.80
43621;BME280;29213;50.770;7.298;2023-11-19T07:55:41;100364.94;;;9.69;67.56
43621;BME280;29213;50.770;7.298;2023-11-19T07:58:06;100393.41;;;9.93;67.89
43621;BME280;29213;50.770;7.298;2023-11-19T08:00:32;100392.94;;;9.98;68.09
43621;BME280;29213;50.770;7.298;2023-11-19T08:02:57;100389.75;;;10.02;67.91
43621;BME280;29213;50.770;7.298;2023-11-19T08:05:23;100391.25;;;10.05;67.76
43621;BME280;29213;50.770;7.298;2023-11-19T08:07:50;100377.44;;;9.93;67.82
43621;BME280;29213;50.770;7.298;2023-11-19T08:10:17;100400.56;;;10.01;68.17
43621;BME280;29213;50.770;7.298;2023-11-19T08:12:42;100396.75;;;9.95;68.61
43621;BME280;29213;50.770;7.298;2023-11-19T08:15:08;100391.06;;;9.82;68.16
43621;BME280;29213;50.770;7.298;2023-11-19T08:17:34;100402.53;;;9.90;67.31
43621;BME280;29213;50.770;7.298;2023-11-19T08:19:59;100401.34;;;9.76;66.89
43621;BME280;29213;50.770;7.298;2023-11-19T08:22:25;100395.34;;;9.66;65.85
43621;BME280;29213;50.770;7.298;2023-11-19T08:24:50;100410.84;;;9.79;66.57
43621;BME280;29213;50.770;7.298;2023-11-19T08:27:16;100397.19;;;9.74;66.92
43621;BME280;29213;50.770;7.298;2023-11-19T08:29:41;100410.88;;;9.87;66.44
43621;BME280;29213;50.770;7.298;2023-11-19T08:32:07;100422.84;;;9.92;66.66
43621;BME280;29213;50.770;7.298;2023-11-19T08:34:32;100408.66;;;9.74;66.91
43621;BME280;29213;50.770;7.298;2023-11-19T08:36:59;100382.19;;;9.48;66.19
43621;BME280;29213;50.770;7.298;2023-11-19T08:39:24;100400.50;;;9.68;65.63
43621;BME280;29213;50.770;7.298;2023-11-19T08:41:50;100408.84;;;9.73;65.52
43621;BME280;29213;50.770;7.298;2023-11-19T08:44:16;100434.00;;;9.95;64.88
43621;BME280;29213;50.770;7.298;2023-11-19T08:46:48;100434.16;;;10.02;65.63
43621;BME280;29213;50.770;7.298;2023-11-19T08:49:14;100415.53;;;9.94;65.19
43621;BME280;29213;50.770;7.298;2023-11-19T08:51:40;100376.44;;;9.78;64.96
43621;BME280;29213;50.770;7.298;2023-11-19T08:54:05;100399.88;;;9.90;65.04
43621;BME280;29213;50.770;7.298;2023-11-19T08:56:31;100438.19;;;10.14;64.67
43621;BME280;29213;50.770;7.298;2023-11-19T08:58:58;100449.97;;;10.20;64.61
43621;BME280;29213;50.770;7.298;2023-11-19T09:01:23;100399.72;;;9.84;63.83
43621;BME280;29213;50.770;7.298;2023-11-19T09:03:50;100446.28;;;10.05;63.27
43621;BME280;29213;50.770;7.298;2023-11-19T09:06:15;100406.88;;;9.92;62.74
43621;BME280;29213;50.770;7.298;2023-11-19T09:08:42;100430.19;;;9.98;63.60
43621;BME280;29213;50.770;7.298;2023-11-19T09:11:08;100404.69;;;9.87;62.89
43621;BME280;29213;50.770;7.298;2023-11-19T09:13:35;100422.19;;;9.98;63.21
43621;BME280;29213;50.770;7.298;2023-11-19T09:16:00;100414.03;;;9.91;62.07
43621;BME280;29213;50.770;7.298;2023-11-19T09:18:29;100417.38;;;10.01;62.40
43621;BME280;29213;50.770;7.298;2023-11-19T09:20:54;100444.16;;;10.16;61.39
43621;BME280;29213;50.770;7.298;2023-11-19T09:23:20;100445.97;;;10.16;61.41
43621;BME280;29213;50.770;7.298;2023-11-19T09:25:45;100448.97;;;10.21;62.18
43621;BME280;29213;50.770;7.298;2023-11-19T09:28:11;100380.75;;;9.79;61.94
43621;BME280;29213;50.770;7.298;2023-11-19T09:30:36;100419.22;;;10.09;61.32
43621;BME280;29213;50.770;7.298;2023-11-19T09:33:01;100426.19;;;10.19;61.34
43621;BME280;29213;50.770;7.298;2023-11-19T09:35:27;100424.69;;;10.16;60.00
43621;BME280;29213;50.770;7.298;2023-11-19T09:37:53;100440.53;;;10.26;60.96
43621;BME280;29213;50.770;7.298;2023-11-19T09:40:18;100442.53;;;10.32;60.36
43621;BME280;29213;50.770;7.298;2023-11-19T09:42:44;100409.25;;;10.20;60.50
43621;BME280;29213;50.770;7.298;2023-11-19T09:45:14;100378.97;;;10.04;59.90
43621;BME280;29213;50.770;7.298;2023-11-19T09:47:45;100446.84;;;10.50;59.83
43621;BME280;29213;50.770;7.298;2023-11-19T09:50:20;100443.34;;;10.57;59.26
43621;BME280;29213;50.770;7.298;2023-11-19T09:52:46;100412.88;;;10.52;60.20
43621;BME280;29213;50.770;7.298;2023-11-19T09:55:12;100406.75;;;10.51;59.06
43621;BME280;29213;50.770;7.298;2023-11-19T09:57:38;100437.31;;;10.72;58.15
43621;BME280;29213;50.770;7.298;2023-11-19T10:00:05;100420.03;;;10.76;59.64
43621;BME280;29213;50.770;7.298;2023-11-19T10:02:34;100443.81;;;10.86;58.98
43621;BME280;29213;50.770;7.298;2023-11-19T10:05:06;100445.16;;;10.90;57.47
43621;BME280;29213;50.770;7.298;2023-11-19T10:07:32;100451.47;;;11.06;58.65
43621;BME280;29213;50.770;7.298;2023-11-19T10:09:59;100425.47;;;11.08;58.29
43621;BME280;29213;50.770;7.298;2023-11-19T10:12:26;100399.53;;;10.93;57.51
43621;BME280;29213;50.770;7.298;2023-11-19T10:14:53;100404.81;;;11.10;58.00
43621;BME280;29213;50.770;7.298;2023-11-19T10:17:21;100420.53;;;11.36;57.93
43621;BME280;29213;50.770;7.298;2023-11-19T10:19:46;100384.28;;;11.19;57.95
43621;BME280;29213;50.770;7.298;2023-11-19T10:22:12;100422.28;;;11.53;58.23
43621;BME280;29213;50.770;7.298;2023-11-19T10:24:39;100423.94;;;11.54;56.15
43621;BME280;29213;50.770;7.298;2023-11-19T10:27:09;100403.50;;;11.46;56.23
43621;BME280;29213;50.770;7.298;2023-11-19T10:29:37;100414.75;;;11.56;55.13
43621;BME280;29213;50.770;7.298;2023-11-19T10:32:03;100395.19;;;11.41;56.20
43621;BME280;29213;50.770;7.298;2023-11-19T10:34:29;100365.88;;;11.32;55.51
43621;BME280;29213;50.770;7.298;2023-11-19T10:36:55;100390.03;;;11.39;54.94
43621;BME280;29213;50.770;7.298;2023-11-19T10:39:21;100359.25;;;11.28;54.69
43621;BME280;29213;50.770;7.298;2023-11-19T10:41:46;100408.22;;;11.67;55.34
43621;BME280;29213;50.770;7.298;2023-11-19T10:44:12;100368.16;;;11.44;55.90
43621;BME280;29213;50.770;7.298;2023-11-19T10:46:41;100410.00;;;11.75;56.04
43621;BME280;29213;50.770;7.298;2023-11-19T10:49:07;100387.34;;;11.71;55.01
43621;BME280;29213;50.770;7.298;2023-11-19T10:51:33;100421.69;;;11.74;54.75
43621;BME280;29213;50.770;7.298;2023-11-19T10:54:03;100408.88;;;11.69;54.82
43621;BME280;29213;50.770;7.298;2023-11-19T10:56:32;100411.84;;;11.74;54.89
43621;BME280;29213;50.770;7.298;2023-11-19T10:58:59;100393.22;;;11.66;54.76
43621;BME280;29213;50.770;7.298;2023-11-19T11:01:27;100380.69;;;11.67;55.23
43621;BME280;29213;50.770;7.298;2023-11-19T11:03:57;100401.59;;;11.86;53.61
43621;BME280;29213;50.770;7.298;2023-11-19T11:06:24;100192.34;;;10.64;53.75
43621;BME280;29213;50.770;7.298;2023-11-19T11:08:51;100264.06;;;11.05;54.06
43621;BME280;29213;50.770;7.298;2023-11-19T11:11:18;100158.91;;;10.61;53.40
43621;BME280;29213;50.770;7.298;2023-11-19T11:13:47;100309.75;;;11.57;53.32
43621;BME280;29213;50.770;7.298;2023-11-19T11:16:13;100255.03;;;11.15;54.08
43621;BME280;29213;50.770;7.298;2023-11-19T11:18:39;100225.19;;;10.88;53.88
43621;BME280;29213;50.770;7.298;2023-11-19T11:21:11;100267.00;;;11.19;52.95
43621;BME280;29213;50.770;7.298;2023-11-19T11:27:08;100384.78;;;12.09;52.89
43621;BME280;29213;50.770;7.298;2023-11-19T11:33:35;100390.13;;;12.33;51.22
43621;BME280;29213;50.770;7.298;2023-11-19T11:38:36;100351.88;;;11.94;52.43
43621;BME280;29213;50.770;7.298;2023-11-19T11:41:16;100397.41;;;12.15;52.24
43621;BME280;29213;50.770;7.298;2023-11-19T11:43:49;100379.56;;;12.16;52.46
43621;BME280;29213;50.770;7.298;2023-11-19T11:49:04;100363.06;;;11.89;52.48
43621;BME280;29213;50.770;7.298;2023-11-19T11:51:57;100369.88;;;11.92;55.23
43621;BME280;29213;50.770;7.298;2023-11-19T11:57:14;100391.19;;;11.68;56.17
43621;BME280;29213;50.770;7.298;2023-11-19T12:02:12;100396.00;;;11.73;57.01
43621;BME280;29213;50.770;7.298;2023-11-19T12:04:39;100396.19;;;11.71;57.00
43621;BME280;29213;50.770;7.298;2023-11-19T12:07:06;100339.00;;;11.42;57.35
43621;BME280;29213;50.770;7.298;2023-11-19T12:09:32;100390.97;;;11.78;58.17
43621;BME280;29213;50.770;7.298;2023-11-19T12:12:21;100132.69;;;10.01;58.26
43621;BME280;29213;50.770;7.298;2023-11-19T12:15:03;100283.59;;;10.98;59.30
43621;BME280;29213;50.770;7.298;2023-11-19T12:22:27;100121.53;;;10.14;58.83
43621;BME280;29213;50.770;7.298;2023-11-19T12:24:56;100072.44;;;9.77;57.85
43621;BME280;29213;50.770;7.298;2023-11-19T12:27:21;100328.22;;;11.35;58.33
43621;BME280;29213;50.770;7.298;2023-11-19T12:29:48;100339.38;;;11.39;58.23
43621;BME280;29213;50.770;7.298;2023-11-19T12:32:14;100339.81;;;11.51;58.16
43621;BME280;29213;50.770;7.298;2023-11-19T12:34:39;100303.38;;;11.35;58.33
43621;BME280;29213;50.770;7.298;2023-11-19T12:37:05;100305.72;;;11.38;58.37
43621;BME280;29213;50.770;7.298;2023-11-19T12:39:31;100300.47;;;11.21;58.11
43621;BME280;29213;50.770;7.298;2023-11-19T12:41:56;100323.38;;;11.39;58.62
43621;BME280;29213;50.770;7.298;2023-11-19T12:44:24;100333.34;;;11.45;58.84
43621;BME280;29213;50.770;7.298;2023-11-19T12:47:08;100279.66;;;11.17;58.38
43621;BME280;29213;50.770;7.298;2023-11-19T12:49:36;100307.91;;;11.34;58.26
43621;BME280;29213;50.770;7.298;2023-11-19T12:52:10;100337.31;;;11.49;58.51
43621;BME280;29213;50.770;7.298;2023-11-19T12:54:36;100295.97;;;11.22;58.67
43621;BME280;29213;50.770;7.298;2023-11-19T12:57:02;100277.22;;;11.07;58.83
43621;BME280;29213;50.770;7.298;2023-11-19T12:59:28;100337.34;;;11.41;58.46
43621;BME280;29213;50.770;7.298;2023-11-19T13:01:55;100317.56;;;11.35;58.35
43621;BME280;29213;50.770;7.298;2023-11-19T13:04:20;100303.31;;;11.20;57.21
43621;BME280;29213;50.770;7.298;2023-11-19T13:06:46;100258.34;;;10.85;57.26
43621;BME280;29213;50.770;7.298;2023-11-19T13:09:27;100339.72;;;11.36;57.41
43621;BME280;29213;50.770;7.298;2023-11-19T13:11:55;100344.00;;;11.45;57.92
43621;BME280;29213;50.770;7.298;2023-11-19T13:14:22;100319.91;;;11.30;57.47
43621;BME280;29213;50.770;7.298;2023-11-19T13:16:48;100311.63;;;11.25;57.67
43621;BME280;29213;50.770;7.298;2023-11-19T13:19:16;100314.59;;;11.30;57.42